createdAt,value
2023-01-22T00:04:23.831Z,13.52
2023-01-22T00:06:50.367Z,10.23
2023-01-22T00:09:16.944Z,11.00
2023-01-22T00:11:43.494Z,12.20
2023-01-22T00:14:10.220Z,11.48
2023-01-22T00:16:36.870Z,11.25
2023-01-22T00:19:03.434Z,12.37
2023-01-22T00:21:29.997Z,10.25
2023-01-22T00:23:56.561Z,11.55
2023-01-22T00:26:25.621Z,10.65
2023-01-22T00:31:45.152Z,10.27
2023-01-22T00:34:11.939Z,10.90
2023-01-22T00:36:41.132Z,10.05
2023-01-22T00:39:09.031Z,11.88
2023-01-22T00:42:03.653Z,13.07
2023-01-22T00:44:51.965Z,11.48
2023-01-22T00:47:18.596Z,10.77
2023-01-22T00:49:45.143Z,10.38
2023-01-22T00:52:11.729Z,11.55
2023-01-22T00:54:38.525Z,11.27
2023-01-22T00:57:05.274Z,11.12
2023-01-22T00:59:32.498Z,10.73
2023-01-22T01:01:59.179Z,11.27
2023-01-22T01:04:25.729Z,10.77
2023-01-22T01:06:52.504Z,10.63
2023-01-22T01:09:19.153Z,10.60
2023-01-22T01:11:46.881Z,9.85
2023-01-22T01:14:25.439Z,11.12
2023-01-22T01:16:52.109Z,10.32
2023-01-22T01:19:20.555Z,11.30
2023-01-22T01:21:47.426Z,10.23
2023-01-22T01:24:19.417Z,10.98
2023-01-22T01:27:33.723Z,11.65
2023-01-22T01:30:11.096Z,11.85
2023-01-22T01:32:37.960Z,11.25
2023-01-22T01:35:05.538Z,10.85
2023-01-22T01:37:32.424Z,10.05
2023-01-22T01:39:58.957Z,12.32
2023-01-22T01:42:39.017Z,11.10
2023-01-22T01:45:29.311Z,11.55
2023-01-22T01:48:16.121Z,12.35
2023-01-22T01:50:45.060Z,11.05
2023-01-22T01:53:11.685Z,12.82
2023-01-22T01:56:03.536Z,12.15
2023-01-22T01:58:47.249Z,11.07
2023-01-22T02:01:18.050Z,12.73
2023-01-22T02:03:49.165Z,12.02
2023-01-22T02:06:22.111Z,12.95
2023-01-22T02:08:50.490Z,10.85
2023-01-22T02:11:19.039Z,13.25
2023-01-22T02:13:51.491Z,12.00
2023-01-22T02:16:18.906Z,11.80
2023-01-22T02:18:45.558Z,11.73
2023-01-22T02:21:43.314Z,12.77
2023-01-22T02:24:13.284Z,11.23
2023-01-22T02:27:00.004Z,12.25
2023-01-22T02:29:39.754Z,11.68
2023-01-22T02:32:06.556Z,11.93
2023-01-22T02:34:33.439Z,12.75
2023-01-22T02:37:01.139Z,12.55
2023-01-22T02:39:52.728Z,11.82
2023-01-22T02:42:47.239Z,12.23
2023-01-22T02:45:13.910Z,11.75
2023-01-22T02:47:40.734Z,11.65
2023-01-22T02:50:08.154Z,11.57
2023-01-22T02:52:34.786Z,12.98
2023-01-22T02:55:01.317Z,12.15
2023-01-22T02:57:30.298Z,12.02
2023-01-22T02:59:57.537Z,13.50
2023-01-22T03:02:25.520Z,11.88
2023-01-22T03:05:03.145Z,12.15
2023-01-22T03:07:44.908Z,12.75
2023-01-22T03:10:35.790Z,13.40
2023-01-22T03:13:45.076Z,11.98
2023-01-22T03:16:30.200Z,11.57
2023-01-22T03:19:15.469Z,12.48
2023-01-22T03:21:43.967Z,12.10
2023-01-22T03:24:10.627Z,12.25
2023-01-22T03:26:37.169Z,12.15
2023-01-22T03:29:18.791Z,12.20
2023-01-22T03:31:48.441Z,12.37
2023-01-22T03:34:16.889Z,10.38
2023-01-22T03:36:43.782Z,10.77
2023-01-22T03:39:44.472Z,11.60
2023-01-22T03:42:32.761Z,11.55
2023-01-22T03:44:59.301Z,10.13
2023-01-22T03:47:25.883Z,10.35
2023-01-22T03:49:52.517Z,13.13
2023-01-22T03:52:19.044Z,10.10
2023-01-22T03:54:45.587Z,10.63
2023-01-22T03:57:30.812Z,11.10
2023-01-22T04:00:02.070Z,9.18
2023-01-22T04:02:29.118Z,9.63
2023-01-22T04:04:55.766Z,9.35
2023-01-22T04:08:31.219Z,9.02
2023-01-22T04:11:28.818Z,9.13
2023-01-22T04:13:56.556Z,8.02
2023-01-22T04:16:23.377Z,9.80
2023-01-22T04:18:50.164Z,7.87
2023-01-22T04:21:16.743Z,8.73
2023-01-22T04:23:43.311Z,8.70
2023-01-22T04:26:09.905Z,8.73
2023-01-22T04:28:36.443Z,9.05
2023-01-22T04:31:04.752Z,9.13
2023-01-22T04:33:31.952Z,8.60
2023-01-22T04:35:58.617Z,8.00
2023-01-22T04:38:25.229Z,9.13
2023-01-22T04:40:51.781Z,8.27
2023-01-22T04:43:18.396Z,9.07
2023-01-22T04:45:45.129Z,7.95
2023-01-22T04:48:12.748Z,7.45
2023-01-22T04:50:39.328Z,7.45
2023-01-22T04:53:05.909Z,6.70
2023-01-22T04:55:32.599Z,7.45
2023-01-22T04:58:57.909Z,7.70
2023-01-22T05:01:44.535Z,7.78
2023-01-22T05:04:11.341Z,6.95
2023-01-22T05:06:37.922Z,7.35
2023-01-22T05:09:04.506Z,10.20
2023-01-22T05:11:31.036Z,8.07
2023-01-22T05:13:57.612Z,6.15
2023-01-22T05:19:13.083Z,6.45
2023-01-22T05:21:39.601Z,8.48
2023-01-22T05:24:06.520Z,7.80
2023-01-22T05:26:35.303Z,9.15
2023-01-22T05:29:01.898Z,7.72
2023-01-22T05:31:47.419Z,7.85
2023-01-22T05:37:10.497Z,7.80
2023-01-22T05:39:37.072Z,7.90
2023-01-22T05:42:03.747Z,8.43
2023-01-22T05:44:31.732Z,7.72
2023-01-22T05:47:09.430Z,7.03
2023-01-22T05:49:35.992Z,6.87
2023-01-22T05:52:02.574Z,7.20
2023-01-22T05:54:29.171Z,10.02
2023-01-22T05:56:55.820Z,8.50
2023-01-22T05:59:22.421Z,8.05
2023-01-22T06:02:04.199Z,9.10
2023-01-22T06:04:30.775Z,7.65
2023-01-22T06:06:57.479Z,8.55
2023-01-22T06:09:24.569Z,8.80
2023-01-22T06:12:13.117Z,8.52
2023-01-22T06:15:32.471Z,7.82
2023-01-22T06:18:02.251Z,9.80
2023-01-22T06:20:28.837Z,7.35
2023-01-22T06:22:55.596Z,8.82
2023-01-22T06:25:22.155Z,8.80
2023-01-22T06:27:48.673Z,8.05
2023-01-22T06:30:16.021Z,7.10
2023-01-22T06:50:25.148Z,8.32
2023-01-22T06:52:51.733Z,9.77
2023-01-22T06:55:18.398Z,7.70
2023-01-22T06:57:44.997Z,7.53
2023-01-22T07:00:11.900Z,9.27
2023-01-22T07:02:38.504Z,7.78
2023-01-22T07:12:55.537Z,8.82
2023-01-22T07:15:22.451Z,9.48
2023-01-22T07:17:52.685Z,9.45
2023-01-22T07:20:20.990Z,9.30
2023-01-22T07:22:47.559Z,8.93
2023-01-22T07:25:14.576Z,8.18
2023-01-22T07:27:41.301Z,9.50
2023-01-22T07:30:08.443Z,9.45
2023-01-22T07:32:50.419Z,10.73
2023-01-22T07:35:18.654Z,9.82
2023-01-22T07:37:51.725Z,8.95
2023-01-22T07:43:26.692Z,9.75
2023-01-22T07:46:13.164Z,9.57
2023-01-22T07:48:39.725Z,10.48
2023-01-22T07:51:06.897Z,10.27
2023-01-22T07:53:34.750Z,12.20
2023-01-22T07:56:01.982Z,11.32
2023-01-22T07:58:30.678Z,11.20
2023-01-22T08:00:57.342Z,11.45
2023-01-22T08:03:24.068Z,9.90
2023-01-22T08:05:50.714Z,9.68
2023-01-22T08:08:20.528Z,9.77
2023-01-22T08:10:47.734Z,11.68
2023-01-22T08:13:14.871Z,12.70
2023-01-22T08:15:45.227Z,12.93
2023-01-22T08:18:11.904Z,11.77
2023-01-22T08:20:38.475Z,10.20
2023-01-22T08:23:05.229Z,13.20
2023-01-22T08:25:31.809Z,11.65
2023-01-22T08:28:02.851Z,10.55
2023-01-22T08:30:29.451Z,11.23
2023-01-22T08:32:58.107Z,12.60
2023-01-22T08:35:24.681Z,11.00
2023-01-22T08:37:51.308Z,11.43
2023-01-22T08:45:28.360Z,12.27
2023-01-22T08:47:59.872Z,11.90
2023-01-22T08:50:29.345Z,14.07
2023-01-22T08:52:57.674Z,14.10
2023-01-22T08:55:27.851Z,12.37
2023-01-22T08:57:57.657Z,13.38
2023-01-22T09:00:25.694Z,12.98
2023-01-22T09:02:59.829Z,14.02
2023-01-22T09:05:27.979Z,14.13
2023-01-22T09:07:54.675Z,12.73
2023-01-22T09:10:22.082Z,12.32
2023-01-22T09:12:48.862Z,13.85
2023-01-22T09:15:15.527Z,13.77
2023-01-22T09:17:42.583Z,13.18
2023-01-22T09:20:09.807Z,14.65
2023-01-22T09:22:36.767Z,15.57
2023-01-22T09:25:05.123Z,13.52
2023-01-22T09:27:31.884Z,13.13
2023-01-22T09:29:59.769Z,12.60
2023-01-22T09:32:26.385Z,15.00
2023-01-22T09:34:52.968Z,13.13
2023-01-22T09:37:20.273Z,13.73
2023-01-22T09:39:50.595Z,12.05
2023-01-22T09:42:31.678Z,12.60
2023-01-22T09:45:07.195Z,13.70
2023-01-22T09:47:49.495Z,13.75
2023-01-22T09:50:22.406Z,14.17
2023-01-22T09:52:52.751Z,14.90
2023-01-22T09:55:30.413Z,15.55
2023-01-22T09:58:01.943Z,17.02
2023-01-22T10:01:01.041Z,17.45
2023-01-22T10:03:41.995Z,14.48
2023-01-22T10:06:14.616Z,16.23
2023-01-22T10:09:09.767Z,13.93
2023-01-22T10:11:39.848Z,13.85
2023-01-22T10:14:12.630Z,13.40
2023-01-22T10:16:39.858Z,15.02
2023-01-22T10:19:32.953Z,14.50
2023-01-22T10:22:03.964Z,15.35
2023-01-22T10:24:30.640Z,14.23
2023-01-22T10:26:58.970Z,14.85
2023-01-22T10:29:32.149Z,13.90
2023-01-22T10:32:28.845Z,15.57
2023-01-22T10:35:20.824Z,14.87
2023-01-22T10:37:49.998Z,17.52
2023-01-22T10:40:38.354Z,14.63
2023-01-22T10:43:13.487Z,14.85
2023-01-22T10:45:54.736Z,18.80
2023-01-22T10:48:41.313Z,16.42
2023-01-22T10:51:17.828Z,18.75
2023-01-22T10:53:54.632Z,18.85
2023-01-22T10:56:46.322Z,16.33
2023-01-22T10:59:33.557Z,14.87
2023-01-22T11:02:03.591Z,17.40
2023-01-22T11:04:33.341Z,16.02
2023-01-22T11:07:07.040Z,17.35
2023-01-22T11:09:41.844Z,17.27
2023-01-22T11:12:40.371Z,15.02
2023-01-22T11:20:25.960Z,15.07
2023-01-22T11:23:10.978Z,14.60
2023-01-22T11:25:43.899Z,14.32
2023-01-22T11:28:28.381Z,16.70
2023-01-22T11:31:09.201Z,15.02
2023-01-22T11:34:22.129Z,14.75
2023-01-22T11:45:09.686Z,15.13
2023-01-22T11:48:00.481Z,15.93
2023-01-22T11:50:56.368Z,15.38
2023-01-22T11:53:48.362Z,16.37
2023-01-22T11:56:52.922Z,17.87
2023-01-22T11:59:46.384Z,15.65
2023-01-22T12:05:11.733Z,19.10
2023-01-22T12:07:52.849Z,16.65
2023-01-22T12:10:26.512Z,15.90
2023-01-22T12:15:46.363Z,26.55
2023-01-22T12:18:28.041Z,74.12
2023-01-22T12:21:15.852Z,23.08
2023-01-22T12:23:54.292Z,21.83
2023-01-22T12:26:26.122Z,23.87
2023-01-22T12:29:33.395Z,22.25
2023-01-22T12:32:13.870Z,19.95
2023-01-22T12:35:08.984Z,19.70
2023-01-22T12:37:44.286Z,20.55
2023-01-22T12:40:34.888Z,21.02
2023-01-22T12:43:03.898Z,20.73
2023-01-22T12:45:33.203Z,23.15
2023-01-22T12:48:22.324Z,23.75
2023-01-22T12:50:56.229Z,25.75
2023-01-22T12:53:30.047Z,24.05
2023-01-22T12:56:12.019Z,24.80
2023-01-22T13:01:35.988Z,25.27
2023-01-22T13:04:08.093Z,23.00
2023-01-22T13:06:40.845Z,21.95
2023-01-22T13:09:25.058Z,25.85
2023-01-22T13:11:51.688Z,23.60
2023-01-22T13:14:30.920Z,23.52
2023-01-22T13:17:03.659Z,26.23
2023-01-22T13:19:42.371Z,28.83
2023-01-22T13:22:28.438Z,24.30
2023-01-22T13:24:57.714Z,24.60
2023-01-22T13:27:33.935Z,23.17
2023-01-22T13:30:28.000Z,26.83
2023-01-22T13:33:15.605Z,24.20
2023-01-22T13:35:44.322Z,25.27
2023-01-22T13:38:28.887Z,27.37
2023-01-22T13:41:09.167Z,22.23
2023-01-22T13:43:38.584Z,26.92
2023-01-22T13:46:05.850Z,26.45
2023-01-22T13:48:32.719Z,28.23
2023-01-22T13:51:04.733Z,33.67
2023-01-22T13:53:35.320Z,27.50
2023-01-22T13:56:02.134Z,26.55
2023-01-22T13:58:49.530Z,25.85
2023-01-22T14:01:32.583Z,26.62
2023-01-22T14:04:06.921Z,27.90
2023-01-22T14:06:49.552Z,30.67
2023-01-22T14:09:31.635Z,27.20
2023-01-22T14:11:59.408Z,26.42
2023-01-22T14:14:26.724Z,30.05
2023-01-22T14:16:53.548Z,33.15
2023-01-22T14:19:20.143Z,30.33
2023-01-22T14:21:46.697Z,30.58
2023-01-22T14:27:02.291Z,26.25
2023-01-22T14:29:28.842Z,25.88
2023-01-22T14:31:55.579Z,28.87
2023-01-22T14:34:22.423Z,28.52
2023-01-22T14:36:51.243Z,28.33
2023-01-22T14:39:18.693Z,28.80
2023-01-22T14:41:51.489Z,27.02
2023-01-22T14:44:18.199Z,36.13
2023-01-22T14:46:44.945Z,32.08
2023-01-22T14:49:11.514Z,29.98
2023-01-22T14:54:45.202Z,34.03
2023-01-22T14:57:11.777Z,36.15
2023-01-22T14:59:38.436Z,38.70
2023-01-22T15:02:05.028Z,38.10
2023-01-22T15:04:31.591Z,33.88
2023-01-22T15:06:58.349Z,33.30
2023-01-22T15:09:25.272Z,31.67
2023-01-22T15:11:51.881Z,30.95
2023-01-22T15:14:18.457Z,29.25
2023-01-22T15:16:45.153Z,30.90
2023-01-22T15:19:11.797Z,31.00
2023-01-22T15:21:38.444Z,30.45
2023-01-22T15:24:05.236Z,34.38
2023-01-22T15:26:35.373Z,34.40
2023-01-22T15:29:03.542Z,32.58
2023-01-22T15:31:30.871Z,30.90
2023-01-22T15:33:59.959Z,32.15
2023-01-22T15:36:28.275Z,35.40
2023-01-22T15:38:56.818Z,29.20
2023-01-22T15:41:28.702Z,31.65
2023-01-22T15:44:01.239Z,30.60
2023-01-22T15:46:30.463Z,32.60
2023-01-22T15:48:58.822Z,55.15
2023-01-22T15:51:26.553Z,38.53
2023-01-22T15:53:59.149Z,33.25
2023-01-22T15:56:29.083Z,32.90
2023-01-22T15:58:56.915Z,31.73
2023-01-22T16:01:24.521Z,30.50
2023-01-22T16:03:51.511Z,32.30
2023-01-22T16:06:22.461Z,43.47
2023-01-22T16:08:51.404Z,38.67
2023-01-22T16:11:18.044Z,37.95
2023-01-22T16:13:45.426Z,33.67
2023-01-22T16:16:25.539Z,31.33
2023-01-22T16:18:53.477Z,35.05
2023-01-22T16:21:21.541Z,32.10
2023-01-22T16:23:53.554Z,29.55
2023-01-22T16:26:26.440Z,32.65
2023-01-22T16:29:04.967Z,32.55
2023-01-22T16:31:33.823Z,30.50
2023-01-22T16:34:07.949Z,32.60
2023-01-22T16:36:34.505Z,30.27
2023-01-22T16:39:01.530Z,29.77
2023-01-22T16:41:30.513Z,32.80
2023-01-22T16:44:05.673Z,33.35
2023-01-22T16:46:33.794Z,30.62
2023-01-22T16:49:11.182Z,34.00
2023-01-22T16:51:41.432Z,31.15
2023-01-22T16:54:08.262Z,30.30
2023-01-22T16:56:35.326Z,33.42
2023-01-22T16:59:02.183Z,33.78
2023-01-22T17:01:30.467Z,33.40
2023-01-22T17:03:57.195Z,34.67
2023-01-22T17:06:31.330Z,35.95
2023-01-22T17:08:58.567Z,29.08
2023-01-22T17:11:25.358Z,33.80
2023-01-22T17:13:52.601Z,32.38
2023-01-22T17:16:19.527Z,32.00
2023-01-22T17:18:46.166Z,33.90
2023-01-22T17:21:16.024Z,32.17
2023-01-22T17:23:42.842Z,35.70
2023-01-22T17:26:11.817Z,34.75
2023-01-22T17:28:39.579Z,37.10
2023-01-22T17:31:11.826Z,32.15
2023-01-22T17:33:38.936Z,31.80
2023-01-22T17:36:06.753Z,31.87
2023-01-22T17:38:38.512Z,35.90
2023-01-22T17:41:11.833Z,35.40
2023-01-22T17:43:41.491Z,38.42
2023-01-22T17:46:31.492Z,34.28
2023-01-22T17:49:01.100Z,35.40
2023-01-22T17:51:29.192Z,34.08
2023-01-22T17:53:58.243Z,37.17
2023-01-22T17:56:36.551Z,53.10
2023-01-22T18:02:21.009Z,40.58
2023-01-22T18:04:47.699Z,36.28
2023-01-22T18:07:14.319Z,34.80
2023-01-22T18:09:40.890Z,34.35
2023-01-22T18:12:07.576Z,34.20
2023-01-22T18:14:34.291Z,35.20
2023-01-22T18:17:01.745Z,31.95
2023-01-22T18:19:28.457Z,34.38
2023-01-22T18:21:55.987Z,36.92
2023-01-22T18:24:24.115Z,33.92
2023-01-22T18:26:50.888Z,36.38
2023-01-22T18:29:17.493Z,33.90
2023-01-22T18:31:44.482Z,31.08
2023-01-22T18:34:14.728Z,30.67
2023-01-22T18:36:42.409Z,31.67
2023-01-22T18:39:14.872Z,30.42
2023-01-22T18:41:42.104Z,33.17
2023-01-22T18:44:10.116Z,32.58
2023-01-22T18:46:39.100Z,30.50
2023-01-22T18:49:10.565Z,27.37
2023-01-22T18:51:37.174Z,32.42
2023-01-22T18:54:07.803Z,33.42
2023-01-22T18:56:35.382Z,31.50
2023-01-22T18:59:02.005Z,32.63
2023-01-22T19:01:31.831Z,31.17
2023-01-22T19:04:01.029Z,33.45
2023-01-22T19:06:35.167Z,32.22
2023-01-22T19:09:14.059Z,30.58
2023-01-22T19:11:47.045Z,30.65
2023-01-22T19:14:17.195Z,30.10
2023-01-22T19:16:45.018Z,35.08
2023-01-22T19:19:13.675Z,32.05
2023-01-22T19:21:46.732Z,29.73
2023-01-22T19:26:42.691Z,35.13
2023-01-22T19:29:12.989Z,37.20
2023-01-22T19:31:42.947Z,43.03
2023-01-22T19:34:12.100Z,38.08
2023-01-22T19:36:39.296Z,40.72
2023-01-22T19:39:11.468Z,34.72
2023-01-22T19:41:39.400Z,32.63
2023-01-22T19:44:06.219Z,32.88
2023-01-22T19:46:34.501Z,32.83
2023-01-22T19:49:01.246Z,33.83
2023-01-22T19:51:30.579Z,30.05
2023-01-22T19:54:00.209Z,29.40
2023-01-22T19:56:30.086Z,30.90
2023-01-22T19:59:03.077Z,33.40
2023-01-22T20:03:56.459Z,29.27
2023-01-22T20:06:24.045Z,31.83
2023-01-22T20:08:51.799Z,31.37
2023-01-22T20:11:18.733Z,30.90
2023-01-22T20:13:45.327Z,31.52
2023-01-22T20:16:20.062Z,30.02
2023-01-22T20:18:47.473Z,34.55
2023-01-22T20:21:16.489Z,31.85
2023-01-22T20:23:44.592Z,33.35
2023-01-22T20:26:11.581Z,31.37
2023-01-22T20:28:39.742Z,31.12
2023-01-22T20:31:11.029Z,30.55
2023-01-22T20:33:38.058Z,28.92
2023-01-22T20:36:08.205Z,29.52
2023-01-22T20:38:35.416Z,26.90
2023-01-22T20:41:09.201Z,27.02
2023-01-22T20:43:40.391Z,28.83
2023-01-22T20:56:31.579Z,27.58
2023-01-22T20:59:02.529Z,30.73
2023-01-22T21:05:30.177Z,30.17
2023-01-22T21:07:56.789Z,29.17
2023-01-22T21:10:23.352Z,33.83
2023-01-22T21:12:49.930Z,27.73
2023-01-22T21:15:16.544Z,32.78
2023-01-22T21:17:43.066Z,43.22
2023-01-22T21:20:10.647Z,30.73
2023-01-22T21:22:39.627Z,29.45
2023-01-22T21:25:06.900Z,28.95
2023-01-22T21:27:33.794Z,30.37
2023-01-22T21:30:00.350Z,28.30
2023-01-22T21:32:28.097Z,27.92
2023-01-22T21:34:54.720Z,26.80
2023-01-22T21:37:21.279Z,28.42
2023-01-22T21:39:47.972Z,24.80
2023-01-22T21:42:33.620Z,28.30
2023-01-22T21:45:18.525Z,29.80
2023-01-22T21:47:45.160Z,24.67
2023-01-22T21:55:23.556Z,29.33
2023-01-22T21:57:51.532Z,26.77
2023-01-22T22:00:19.710Z,24.77
2023-01-22T22:02:46.623Z,24.95
2023-01-22T22:05:34.498Z,25.02
2023-01-22T22:11:25.258Z,25.55
2023-01-22T22:13:52.334Z,25.40
2023-01-22T22:16:19.080Z,25.80
2023-01-22T22:18:45.996Z,25.15
2023-01-22T22:21:27.940Z,27.62
2023-01-22T22:23:58.149Z,24.92
2023-01-22T22:26:25.236Z,24.90
2023-01-22T22:28:52.392Z,22.92
2023-01-22T22:31:19.743Z,25.67
2023-01-22T22:33:48.894Z,23.73
2023-01-22T22:36:46.702Z,23.33
2023-01-22T22:39:28.657Z,23.33
2023-01-22T22:41:55.266Z,27.60
2023-01-22T22:44:21.893Z,30.02
2023-01-22T22:50:16.235Z,32.92
2023-01-22T22:52:43.493Z,26.80
2023-01-22T22:55:10.260Z,23.48
2023-01-22T22:57:36.866Z,20.15
2023-01-22T23:00:19.155Z,19.62
2023-01-22T23:02:45.829Z,18.52
2023-01-22T23:10:28.918Z,16.85
2023-01-22T23:13:00.686Z,20.02
2023-01-22T23:15:29.619Z,17.30
2023-01-22T23:17:57.754Z,19.30
2023-01-22T23:21:08.188Z,18.75
2023-01-22T23:24:24.573Z,22.65
2023-01-22T23:27:03.023Z,19.27
2023-01-22T23:29:29.657Z,16.58
2023-01-22T23:31:56.797Z,19.87
2023-01-22T23:34:23.685Z,19.17
2023-01-22T23:37:02.783Z,19.10
2023-01-22T23:39:29.479Z,18.00
2023-01-22T23:41:56.017Z,18.62
2023-01-22T23:44:22.608Z,18.00
2023-01-22T23:46:49.202Z,17.00
2023-01-22T23:49:15.858Z,17.92
2023-01-22T23:51:44.346Z,16.25
2023-01-22T23:54:11.146Z,15.55
2023-01-22T23:56:37.936Z,18.30
2023-01-22T23:59:04.950Z,16.90
